createdAt,value
2017-09-26T00:00:52.321Z,6.93
2017-09-26T00:03:20.274Z,6.37
2017-09-26T00:05:49.148Z,7.10
2017-09-26T00:08:17.751Z,7.33
2017-09-26T00:10:45.616Z,7.97
2017-09-26T00:13:13.501Z,7.40
2017-09-26T00:15:41.813Z,6.47
2017-09-26T00:18:09.639Z,7.80
2017-09-26T00:20:38.313Z,7.00
2017-09-26T00:23:06.467Z,7.83
2017-09-26T00:25:34.362Z,7.87
2017-09-26T00:28:02.302Z,7.60
2017-09-26T00:30:30.272Z,7.53
2017-09-26T00:32:58.443Z,7.47
2017-09-26T00:35:26.338Z,7.67
2017-09-26T00:37:54.690Z,7.67
2017-09-26T00:40:22.512Z,7.20
2017-09-26T00:42:51.363Z,6.93
2017-09-26T00:45:19.820Z,8.57
2017-09-26T00:47:47.616Z,8.30
2017-09-26T00:50:15.512Z,9.27
2017-09-26T00:52:43.442Z,9.00
2017-09-26T00:55:11.511Z,8.07
2017-09-26T00:57:40.103Z,8.13
2017-09-26T01:00:08.455Z,8.80
2017-09-26T01:02:36.305Z,9.60
2017-09-26T01:05:14.148Z,7.23
2017-09-26T01:07:51.930Z,7.60
2017-09-26T01:10:19.918Z,7.70
2017-09-26T01:12:47.759Z,7.27
2017-09-26T01:15:15.620Z,7.17
2017-09-26T01:17:43.387Z,6.90
2017-09-26T01:20:11.360Z,7.60
2017-09-26T01:22:39.374Z,6.83
2017-09-26T01:25:08.437Z,7.70
2017-09-26T01:27:36.314Z,7.83
2017-09-26T01:30:04.169Z,7.67
2017-09-26T01:32:32.140Z,7.37
2017-09-26T01:35:00.006Z,7.70
2017-09-26T01:37:27.955Z,7.30
2017-09-26T01:39:55.926Z,6.97
2017-09-26T01:42:23.809Z,8.03
2017-09-26T01:44:51.686Z,7.23
2017-09-26T01:47:19.449Z,7.83
2017-09-26T01:49:47.275Z,7.40
2017-09-26T01:52:15.257Z,6.43
2017-09-26T01:54:43.089Z,7.97
2017-09-26T01:57:12.238Z,7.50
2017-09-26T01:59:42.774Z,6.70
2017-09-26T02:02:10.585Z,6.80
2017-09-26T02:04:38.757Z,7.67
2017-09-26T02:07:06.564Z,7.43
2017-09-26T02:09:34.328Z,6.30
2017-09-26T02:12:02.335Z,7.47
2017-09-26T02:14:31.505Z,7.97
2017-09-26T02:16:59.369Z,7.63
2017-09-26T02:19:28.036Z,7.23
2017-09-26T02:21:56.549Z,7.80
2017-09-26T02:24:25.067Z,7.20
2017-09-26T02:26:52.884Z,8.07
2017-09-26T02:29:20.745Z,7.67
2017-09-26T02:31:48.619Z,7.60
2017-09-26T02:34:16.488Z,7.43
2017-09-26T02:36:44.299Z,7.67
2017-09-26T02:39:12.419Z,8.80
2017-09-26T02:41:41.083Z,7.90
2017-09-26T02:44:08.890Z,8.83
2017-09-26T02:46:38.200Z,8.13
2017-09-26T02:49:06.752Z,8.17
2017-09-26T02:51:34.824Z,8.80
2017-09-26T02:54:02.666Z,10.17
2017-09-26T02:56:30.570Z,9.17
2017-09-26T02:58:58.671Z,8.57
2017-09-26T03:01:26.493Z,7.93
2017-09-26T03:03:54.912Z,8.27
2017-09-26T03:06:23.645Z,9.27
2017-09-26T03:08:51.534Z,8.37
2017-09-26T03:11:19.393Z,8.43
2017-09-26T03:13:47.971Z,7.50
2017-09-26T03:16:15.837Z,8.23
2017-09-26T03:18:43.730Z,7.40
2017-09-26T03:21:12.394Z,8.07
2017-09-26T03:23:40.259Z,8.00
2017-09-26T03:26:08.205Z,8.17
2017-09-26T03:28:36.118Z,7.90
2017-09-26T03:31:04.860Z,8.70
2017-09-26T03:33:32.756Z,8.33
2017-09-26T03:36:00.573Z,8.10
2017-09-26T03:38:28.700Z,7.47
2017-09-26T03:40:56.685Z,7.37
2017-09-26T03:43:24.634Z,7.00
2017-09-26T03:45:52.576Z,7.73
2017-09-26T03:48:20.954Z,7.37
2017-09-26T03:50:49.749Z,7.33
2017-09-26T03:53:17.676Z,6.57
2017-09-26T03:55:45.468Z,7.50
2017-09-26T03:58:13.356Z,6.73
2017-09-26T04:00:41.461Z,7.27
2017-09-26T04:03:11.040Z,7.57
2017-09-26T04:05:38.907Z,7.27
2017-09-26T04:08:07.263Z,7.80
2017-09-26T04:10:35.094Z,7.50
2017-09-26T04:13:03.128Z,6.63
2017-09-26T04:15:30.989Z,6.10
2017-09-26T04:17:58.832Z,7.03
2017-09-26T04:20:26.796Z,6.93
2017-09-26T04:22:54.692Z,6.33
2017-09-26T04:25:22.558Z,5.90
2017-09-26T04:27:50.997Z,7.63
2017-09-26T04:30:18.836Z,6.60
2017-09-26T04:32:47.668Z,7.03
2017-09-26T04:35:15.417Z,7.50
2017-09-26T04:37:43.430Z,7.10
2017-09-26T04:40:12.495Z,8.07
2017-09-26T04:42:40.496Z,7.13
2017-09-26T04:45:08.435Z,7.97
2017-09-26T04:47:36.613Z,7.40
2017-09-26T04:50:04.540Z,7.30
2017-09-26T04:52:33.085Z,7.33
2017-09-26T04:55:01.146Z,6.03
2017-09-26T04:57:29.102Z,7.47
2017-09-26T04:59:56.887Z,8.13
2017-09-26T05:02:24.734Z,6.80
2017-09-26T05:04:52.720Z,6.23
2017-09-26T05:07:20.478Z,6.93
2017-09-26T05:09:48.349Z,7.30
2017-09-26T05:12:16.217Z,7.63
2017-09-26T05:14:44.075Z,7.43
2017-09-26T05:17:11.956Z,7.33
2017-09-26T05:19:39.712Z,6.37
2017-09-26T05:22:07.571Z,6.63
2017-09-26T05:24:35.456Z,6.70
2017-09-26T05:27:04.023Z,6.53
2017-09-26T05:29:31.899Z,7.20
2017-09-26T05:31:59.665Z,7.13
2017-09-26T05:34:27.512Z,6.33
2017-09-26T05:36:55.388Z,7.70
2017-09-26T05:39:23.165Z,8.07
2017-09-26T05:41:51.066Z,7.50
2017-09-26T05:44:18.911Z,7.80
2017-09-26T05:46:47.503Z,9.30
2017-09-26T05:49:16.086Z,8.20
2017-09-26T05:51:44.733Z,9.50
2017-09-26T05:54:12.621Z,9.90
2017-09-26T05:56:41.294Z,8.93
2017-09-26T05:59:10.487Z,8.13
2017-09-26T06:01:39.283Z,7.80
2017-09-26T06:04:07.124Z,7.03
2017-09-26T06:06:35.009Z,7.80
2017-09-26T06:09:03.083Z,7.30
2017-09-26T06:11:31.031Z,7.00
2017-09-26T06:14:04.940Z,7.17
2017-09-26T06:16:32.826Z,6.50
2017-09-26T06:19:00.576Z,5.00
2017-09-26T06:21:28.367Z,5.60
2017-09-26T06:23:56.406Z,5.70
2017-09-26T06:26:24.257Z,5.30
2017-09-26T06:28:52.276Z,4.83
2017-09-26T06:31:20.836Z,5.13
2017-09-26T06:33:48.567Z,6.47
2017-09-26T06:36:16.463Z,4.83
2017-09-26T06:38:44.855Z,4.27
2017-09-26T06:41:12.815Z,4.67
2017-09-26T06:43:40.579Z,5.03
2017-09-26T06:46:08.527Z,4.77
2017-09-26T06:48:36.270Z,4.80
2017-09-26T06:51:04.368Z,5.00
2017-09-26T06:53:32.360Z,5.27
2017-09-26T06:56:00.215Z,4.20
2017-09-26T06:58:27.945Z,4.33
2017-09-26T07:00:55.755Z,4.87
2017-09-26T07:03:23.615Z,5.97
2017-09-26T07:05:51.578Z,5.30
2017-09-26T07:08:19.460Z,5.47
2017-09-26T07:10:47.198Z,5.40
2017-09-26T07:13:14.945Z,4.17
2017-09-26T07:15:43.560Z,4.00
2017-09-26T07:18:11.327Z,4.07
2017-09-26T07:20:39.076Z,3.60
2017-09-26T07:23:06.950Z,4.23
2017-09-26T07:25:34.818Z,3.60
2017-09-26T07:28:02.787Z,3.90
2017-09-26T07:30:30.527Z,3.70
2017-09-26T07:32:58.308Z,4.10
2017-09-26T07:35:26.082Z,4.10
2017-09-26T07:37:53.952Z,3.80
2017-09-26T07:40:21.815Z,4.60
2017-09-26T07:42:49.548Z,4.70
2017-09-26T07:45:17.282Z,4.90
2017-09-26T07:47:45.877Z,4.20
2017-09-26T07:50:13.632Z,5.70
2017-09-26T07:52:42.273Z,3.93
2017-09-26T07:55:10.902Z,4.13
2017-09-26T07:57:38.658Z,4.73
2017-09-26T08:00:07.499Z,4.57
2017-09-26T08:02:36.331Z,4.13
2017-09-26T08:05:06.307Z,3.90
2017-09-26T08:07:35.689Z,4.30
2017-09-26T08:10:03.460Z,6.00
2017-09-26T08:12:32.106Z,5.03
2017-09-26T08:14:59.863Z,4.80
2017-09-26T08:17:28.407Z,4.40
2017-09-26T08:19:56.150Z,4.57
2017-09-26T08:22:24.332Z,6.50
2017-09-26T08:24:52.308Z,5.73
2017-09-26T08:27:20.646Z,4.50
2017-09-26T08:29:48.486Z,6.23
2017-09-26T08:32:16.421Z,6.70
2017-09-26T08:34:44.286Z,9.23
2017-09-26T08:37:12.245Z,9.80
2017-09-26T08:39:40.132Z,12.00
2017-09-26T08:42:08.046Z,10.40
2017-09-26T08:44:35.951Z,12.57
2017-09-26T08:47:03.835Z,12.40
2017-09-26T08:49:31.778Z,12.30
2017-09-26T08:51:59.692Z,12.67
2017-09-26T08:54:28.242Z,11.70
2017-09-26T08:56:56.421Z,14.13
2017-09-26T08:59:24.899Z,14.83
2017-09-26T09:01:52.662Z,16.40
2017-09-26T09:04:20.556Z,15.57
2017-09-26T09:06:48.510Z,16.07
2017-09-26T09:09:16.768Z,15.93
2017-09-26T09:11:44.653Z,14.97
2017-09-26T09:14:13.014Z,15.20
2017-09-26T09:16:40.794Z,14.33
2017-09-26T09:19:08.874Z,13.73
2017-09-26T09:21:36.646Z,16.17
2017-09-26T09:24:05.154Z,15.70
2017-09-26T09:26:34.239Z,16.40
2017-09-26T09:29:02.798Z,17.20
2017-09-26T09:31:30.766Z,18.17
2017-09-26T09:33:58.821Z,17.90
2017-09-26T09:36:26.687Z,18.60
2017-09-26T09:38:54.647Z,17.70
2017-09-26T09:41:22.547Z,17.10
2017-09-26T09:43:51.176Z,16.17
2017-09-26T09:46:18.976Z,18.10
2017-09-26T09:48:46.751Z,20.63
2017-09-26T09:51:14.542Z,18.83
2017-09-26T09:53:43.046Z,20.33
2017-09-26T09:56:10.922Z,19.20
2017-09-26T09:58:38.785Z,16.77
2017-09-26T10:01:06.592Z,18.90
2017-09-26T10:03:34.450Z,18.83
2017-09-26T10:06:02.307Z,22.13
2017-09-26T10:08:30.185Z,21.50
2017-09-26T10:10:57.957Z,20.67
2017-09-26T10:13:25.828Z,19.80
2017-09-26T10:15:53.702Z,20.93
2017-09-26T10:18:22.271Z,22.77
2017-09-26T10:20:50.050Z,20.53
2017-09-26T10:23:19.526Z,23.10
2017-09-26T10:25:47.416Z,22.07
2017-09-26T10:28:15.279Z,22.80
2017-09-26T10:30:43.164Z,22.70
2017-09-26T10:33:11.824Z,19.23
2017-09-26T10:35:39.678Z,19.10
2017-09-26T10:38:07.545Z,18.63
2017-09-26T10:40:35.613Z,18.50
2017-09-26T10:43:03.611Z,17.97
2017-09-26T10:45:31.467Z,18.70
2017-09-26T10:47:59.337Z,17.30
2017-09-26T10:50:27.203Z,18.53
2017-09-26T10:52:54.985Z,16.40
2017-09-26T10:55:23.557Z,15.90
2017-09-26T10:57:52.070Z,18.03
2017-09-26T11:00:20.729Z,17.80
2017-09-26T11:02:48.527Z,18.67
2017-09-26T11:05:17.127Z,19.00
2017-09-26T11:07:44.898Z,21.10
2017-09-26T11:10:12.774Z,20.03
2017-09-26T11:12:40.648Z,18.57
2017-09-26T11:15:08.538Z,19.27
2017-09-26T11:17:36.407Z,20.80
2017-09-26T11:20:04.227Z,19.43
2017-09-26T11:22:32.214Z,19.60
2017-09-26T11:25:00.098Z,19.10
2017-09-26T11:27:27.971Z,19.40
2017-09-26T11:29:56.119Z,18.10
2017-09-26T11:32:24.090Z,17.27
2017-09-26T11:34:51.954Z,18.10
2017-09-26T11:37:19.723Z,16.20
2017-09-26T11:39:47.489Z,17.50
2017-09-26T11:42:15.655Z,16.07
2017-09-26T11:44:43.520Z,18.10
2017-09-26T11:47:11.499Z,18.57
2017-09-26T11:49:39.481Z,17.93
2017-09-26T11:52:07.431Z,18.73
2017-09-26T11:54:35.419Z,19.70
2017-09-26T11:57:03.291Z,21.67
2017-09-26T11:59:31.258Z,23.50
2017-09-26T12:01:59.780Z,20.90
2017-09-26T12:04:27.684Z,24.43
2017-09-26T12:06:55.451Z,18.93
2017-09-26T12:09:23.218Z,20.73
2017-09-26T12:11:51.097Z,21.13
2017-09-26T12:14:18.983Z,18.10
2017-09-26T12:16:46.831Z,15.30
2017-09-26T12:19:14.590Z,16.40
2017-09-26T12:21:42.491Z,14.67
2017-09-26T12:24:11.126Z,16.97
2017-09-26T12:26:39.016Z,20.60
2017-09-26T12:29:06.908Z,15.87
2017-09-26T12:31:35.758Z,20.47
2017-09-26T12:34:03.539Z,18.80
2017-09-26T12:36:31.284Z,18.93
2017-09-26T12:38:59.593Z,19.73
2017-09-26T12:41:27.352Z,18.13
2017-09-26T12:43:55.187Z,18.00
2017-09-26T12:46:22.976Z,16.20
2017-09-26T12:48:52.343Z,17.63
2017-09-26T12:51:20.323Z,17.77
2017-09-26T12:53:48.213Z,15.90
2017-09-26T12:56:16.085Z,16.60
2017-09-26T12:58:43.949Z,15.37
2017-09-26T13:01:11.894Z,13.90
2017-09-26T13:03:39.684Z,13.60
2017-09-26T13:06:07.649Z,15.30
2017-09-26T13:08:35.613Z,12.83
2017-09-26T13:11:03.381Z,13.93
2017-09-26T13:13:31.135Z,13.13
2017-09-26T13:15:58.960Z,12.47
2017-09-26T13:18:26.758Z,14.23
2017-09-26T13:20:54.648Z,11.67
2017-09-26T13:23:22.522Z,10.93
2017-09-26T13:25:50.353Z,10.10
2017-09-26T13:28:18.323Z,10.97
2017-09-26T13:30:46.188Z,10.63
2017-09-26T13:33:14.315Z,10.63
2017-09-26T13:35:43.583Z,11.07
2017-09-26T13:38:11.444Z,10.80
2017-09-26T13:40:39.314Z,8.73
2017-09-26T13:43:07.162Z,8.40
2017-09-26T13:45:35.854Z,8.70
2017-09-26T13:48:03.646Z,8.27
2017-09-26T13:50:32.177Z,6.93
2017-09-26T13:52:59.991Z,8.23
2017-09-26T13:55:28.544Z,8.30
2017-09-26T13:57:56.407Z,8.30
2017-09-26T14:00:24.280Z,8.90
2017-09-26T14:02:52.155Z,8.33
2017-09-26T14:05:20.006Z,8.40
2017-09-26T14:07:47.799Z,9.43
2017-09-26T14:10:15.637Z,8.53
2017-09-26T14:12:43.422Z,7.37
2017-09-26T14:15:11.192Z,9.17
2017-09-26T14:17:39.047Z,9.00
2017-09-26T14:20:07.089Z,9.57
2017-09-26T14:22:34.968Z,8.60
2017-09-26T14:25:02.768Z,7.90
2017-09-26T14:27:30.600Z,7.33
2017-09-26T14:29:58.469Z,7.70
2017-09-26T14:32:26.315Z,8.20
2017-09-26T14:34:54.238Z,7.23
2017-09-26T14:37:22.190Z,8.00
2017-09-26T14:39:50.052Z,8.63
2017-09-26T14:42:18.008Z,8.00
2017-09-26T14:44:45.776Z,7.90
2017-09-26T14:47:13.680Z,7.70
2017-09-26T14:49:42.442Z,8.40
2017-09-26T14:52:10.317Z,7.73
2017-09-26T14:54:38.112Z,8.53
2017-09-26T14:57:07.044Z,8.13
2017-09-26T14:59:34.832Z,9.30
2017-09-26T15:02:02.796Z,9.80
2017-09-26T15:04:30.950Z,9.70
2017-09-26T15:06:58.848Z,9.10
2017-09-26T15:09:26.938Z,8.20
2017-09-26T15:11:55.681Z,9.70
2017-09-26T15:14:23.767Z,8.43
2017-09-26T15:16:51.643Z,8.20
2017-09-26T15:19:19.500Z,7.70
2017-09-26T15:21:47.472Z,10.00
2017-09-26T15:24:15.256Z,8.83
2017-09-26T15:26:47.478Z,9.77
2017-09-26T15:29:15.507Z,8.07
2017-09-26T15:31:44.146Z,8.63
2017-09-26T15:34:11.908Z,10.57
2017-09-26T15:36:39.794Z,9.77
2017-09-26T15:39:07.646Z,8.80
2017-09-26T15:41:35.433Z,9.40
2017-09-26T15:44:03.259Z,8.93
2017-09-26T15:46:31.171Z,11.67
2017-09-26T15:48:59.002Z,12.60
2017-09-26T15:51:27.099Z,13.17
2017-09-26T15:53:55.037Z,11.47
2017-09-26T15:56:23.051Z,10.90
2017-09-26T15:58:51.620Z,11.43
2017-09-26T16:01:19.478Z,11.37
2017-09-26T16:03:47.332Z,12.00
2017-09-26T16:06:15.205Z,12.17
2017-09-26T16:08:43.160Z,10.70
2017-09-26T16:11:11.331Z,13.00
2017-09-26T16:13:39.738Z,11.50
2017-09-26T16:16:07.604Z,12.33
2017-09-26T16:18:35.550Z,9.67
2017-09-26T16:21:03.433Z,11.73
2017-09-26T16:23:32.226Z,10.93
2017-09-26T16:26:00.200Z,11.60
2017-09-26T16:28:28.267Z,13.03
2017-09-26T16:30:56.165Z,13.13
2017-09-26T16:33:24.818Z,10.97
2017-09-26T16:35:53.820Z,9.53
2017-09-26T16:38:21.883Z,14.27
2017-09-26T16:40:49.833Z,16.00
2017-09-26T16:43:17.899Z,13.63
2017-09-26T16:45:45.791Z,16.03
2017-09-26T16:48:13.663Z,15.87
2017-09-26T16:50:42.140Z,13.77
2017-09-26T16:53:10.192Z,17.40
2017-09-26T16:55:38.191Z,16.13
2017-09-26T16:58:06.160Z,17.77
2017-09-26T17:00:34.046Z,20.30
2017-09-26T17:03:02.708Z,15.60
2017-09-26T17:05:30.750Z,13.47
2017-09-26T17:07:58.864Z,11.70
2017-09-26T17:10:26.871Z,11.70
2017-09-26T17:12:55.819Z,11.83
2017-09-26T17:15:24.613Z,12.73
2017-09-26T17:17:53.296Z,12.47
2017-09-26T17:20:21.976Z,13.40
2017-09-26T17:22:49.828Z,12.50
2017-09-26T17:25:17.796Z,13.07
2017-09-26T17:27:45.866Z,13.47
2017-09-26T17:30:13.845Z,11.93
2017-09-26T17:32:41.712Z,13.40
2017-09-26T17:35:09.536Z,15.70
2017-09-26T17:37:37.410Z,15.67
2017-09-26T17:40:05.200Z,13.50
2017-09-26T17:42:33.095Z,15.17
2017-09-26T17:45:01.934Z,13.50
2017-09-26T17:47:30.029Z,15.70
2017-09-26T17:49:58.047Z,17.60
2017-09-26T17:52:25.942Z,19.03
2017-09-26T17:54:53.926Z,18.60
2017-09-26T17:57:22.104Z,17.27
2017-09-26T17:59:49.967Z,15.43
2017-09-26T18:02:17.857Z,17.53
2017-09-26T18:04:46.514Z,17.20
2017-09-26T18:07:14.368Z,15.10
2017-09-26T18:09:42.508Z,14.20
2017-09-26T18:12:10.515Z,13.90
2017-09-26T18:14:38.808Z,14.50
2017-09-26T18:19:52.750Z,14.37
2017-09-26T18:22:20.745Z,14.97
2017-09-26T18:24:49.216Z,11.40
2017-09-26T18:27:17.067Z,15.90
2017-09-26T18:29:45.136Z,15.37
2017-09-26T18:32:13.187Z,14.70
2017-09-26T18:34:41.075Z,13.77
2017-09-26T18:37:08.909Z,14.00
2017-09-26T18:39:36.726Z,14.67
2017-09-26T18:42:04.714Z,15.10
2017-09-26T18:44:34.114Z,13.90
2017-09-26T18:47:02.182Z,15.10
2017-09-26T18:49:30.046Z,16.23
2017-09-26T18:51:57.890Z,17.10
2017-09-26T18:54:25.767Z,16.20
2017-09-26T18:56:53.716Z,16.73
2017-09-26T18:59:21.813Z,14.00
2017-09-26T19:01:49.686Z,13.60
2017-09-26T19:04:17.605Z,12.50
2017-09-26T19:06:46.623Z,11.50
2017-09-26T19:09:14.812Z,12.03
2017-09-26T19:11:42.674Z,11.70
2017-09-26T19:14:10.650Z,10.50
2017-09-26T19:16:38.608Z,11.20
2017-09-26T19:19:06.662Z,11.13
2017-09-26T19:21:34.535Z,9.90
2017-09-26T19:24:02.521Z,12.37
2017-09-26T19:26:31.170Z,10.70
2017-09-26T19:28:59.059Z,10.17
2017-09-26T19:31:27.207Z,10.23
2017-09-26T19:33:55.297Z,8.80
2017-09-26T19:36:24.049Z,9.83
2017-09-26T19:38:51.874Z,11.43
2017-09-26T19:41:19.716Z,10.33
2017-09-26T19:43:47.816Z,10.00
2017-09-26T19:46:15.858Z,10.13
2017-09-26T19:48:44.031Z,10.80
2017-09-26T19:51:11.932Z,10.10
2017-09-26T19:53:39.763Z,15.13
2017-09-26T19:56:07.732Z,14.00
2017-09-26T19:58:36.465Z,13.20
2017-09-26T20:01:05.355Z,13.73
2017-09-26T20:03:34.177Z,14.53
2017-09-26T20:06:02.023Z,16.70
2017-09-26T20:08:31.064Z,15.03
2017-09-26T20:10:59.273Z,16.50
2017-09-26T20:13:28.122Z,14.60
2017-09-26T20:15:56.228Z,14.60
2017-09-26T20:18:25.107Z,16.83
2017-09-26T20:20:53.004Z,14.80
2017-09-26T20:23:21.751Z,14.87
2017-09-26T20:25:49.530Z,15.10
2017-09-26T20:28:17.401Z,19.10
2017-09-26T20:30:47.300Z,18.67
2017-09-26T20:33:16.775Z,17.70
2017-09-26T20:35:44.529Z,17.67
2017-09-26T20:38:12.419Z,16.77
2017-09-26T20:40:40.298Z,16.03
2017-09-26T20:43:08.318Z,16.47
2017-09-26T20:45:36.226Z,11.20
2017-09-26T20:48:04.091Z,13.03
2017-09-26T20:50:31.893Z,10.60
2017-09-26T20:53:00.445Z,11.67
2017-09-26T20:55:28.303Z,11.27
2017-09-26T20:57:56.269Z,11.23
2017-09-26T21:00:24.061Z,9.93
2017-09-26T21:02:51.926Z,11.40
2017-09-26T21:05:19.806Z,10.63
2017-09-26T21:07:47.669Z,10.07
2017-09-26T21:10:15.627Z,10.80
2017-09-26T21:12:43.981Z,11.13
2017-09-26T21:15:11.748Z,11.50
2017-09-26T21:17:39.523Z,11.50
2017-09-26T21:20:07.323Z,10.50
2017-09-26T21:22:38.219Z,11.37
2017-09-26T21:25:06.286Z,11.17
2017-09-26T21:27:34.149Z,10.13
2017-09-26T21:30:01.943Z,10.77
2017-09-26T21:32:29.890Z,10.23
2017-09-26T21:34:57.770Z,11.40
2017-09-26T21:37:25.510Z,11.00
2017-09-26T21:39:54.507Z,11.50
2017-09-26T21:42:22.389Z,12.50
2017-09-26T21:44:50.272Z,13.83
2017-09-26T21:47:18.332Z,12.90
2017-09-26T21:49:46.171Z,13.40
2017-09-26T21:52:13.956Z,13.87
2017-09-26T21:54:41.822Z,15.40
2017-09-26T21:57:09.589Z,13.43
2017-09-26T21:59:37.748Z,14.43
2017-09-26T22:02:07.266Z,16.27
2017-09-26T22:04:35.934Z,17.20
2017-09-26T22:07:04.025Z,18.20
2017-09-26T22:09:31.890Z,20.07
2017-09-26T22:11:59.874Z,20.83
2017-09-26T22:14:27.901Z,21.20
2017-09-26T22:16:55.699Z,23.83
2017-09-26T22:19:23.664Z,23.50
2017-09-26T22:21:51.734Z,24.83
2017-09-26T22:24:19.603Z,25.43
2017-09-26T22:26:47.555Z,23.53
2017-09-26T22:29:15.397Z,23.20
2017-09-26T22:31:43.138Z,21.73
2017-09-26T22:34:11.854Z,21.63
2017-09-26T22:36:40.074Z,23.40
2017-09-26T22:39:07.941Z,20.60
2017-09-26T22:41:35.702Z,24.40
2017-09-26T22:44:03.717Z,22.37
2017-09-26T22:46:32.519Z,22.47
2017-09-26T22:49:00.541Z,21.00
2017-09-26T22:51:28.367Z,24.43
2017-09-26T22:53:56.259Z,25.30
2017-09-26T22:56:24.099Z,24.93
2017-09-26T22:58:51.963Z,29.70
2017-09-26T23:01:19.737Z,27.87
2017-09-26T23:03:47.632Z,25.80
2017-09-26T23:06:15.576Z,27.70
2017-09-26T23:08:43.455Z,23.63
2017-09-26T23:11:12.067Z,27.63
2017-09-26T23:13:41.026Z,27.43
2017-09-26T23:16:09.003Z,24.90
2017-09-26T23:18:36.980Z,22.67
2017-09-26T23:21:04.838Z,20.10
2017-09-26T23:23:32.702Z,16.60
2017-09-26T23:26:00.647Z,16.00
2017-09-26T23:28:28.458Z,15.97
2017-09-26T23:30:56.953Z,15.40
2017-09-26T23:33:25.478Z,15.00
2017-09-26T23:35:54.151Z,13.80
2017-09-26T23:38:22.034Z,14.80
2017-09-26T23:40:49.915Z,13.37
2017-09-26T23:43:17.791Z,15.17
2017-09-26T23:45:45.627Z,14.23
2017-09-26T23:48:13.598Z,15.90
2017-09-26T23:50:41.408Z,14.60
2017-09-26T23:53:09.416Z,15.37
2017-09-26T23:55:37.836Z,15.60
2017-09-26T23:58:05.681Z,16.37
